createdAt,value
2018-08-22T00:02:34.493Z,65.66
2018-08-22T00:10:55.618Z,65.91
2018-08-22T00:19:17.671Z,66.40
2018-08-22T00:27:38.667Z,66.45
2018-08-22T00:35:59.698Z,66.37
2018-08-22T00:44:21.058Z,66.46
2018-08-22T00:52:42.189Z,66.95
2018-08-22T01:01:04.248Z,67.33
2018-08-22T01:09:25.272Z,66.90
2018-08-22T01:17:46.289Z,67.24
2018-08-22T01:26:07.391Z,67.82
2018-08-22T01:34:28.713Z,67.94
2018-08-22T01:42:49.751Z,67.08
2018-08-22T01:51:10.757Z,66.98
2018-08-22T01:59:32.886Z,65.83
2018-08-22T02:07:53.910Z,66.41
2018-08-22T02:16:14.947Z,67.10
2018-08-22T02:24:35.960Z,67.90
2018-08-22T02:32:58.119Z,68.62
2018-08-22T02:41:19.249Z,68.05
2018-08-22T02:49:42.340Z,67.64
2018-08-22T02:58:03.741Z,69.40
2018-08-22T03:06:24.854Z,69.44
2018-08-22T03:14:48.954Z,69.37
2018-08-22T03:23:10.078Z,68.65
2018-08-22T03:31:31.137Z,70.21
2018-08-22T03:47:15.297Z,70.10
2018-08-22T03:55:36.404Z,69.44
2018-08-22T04:03:57.462Z,69.84
2018-08-22T04:12:18.495Z,69.77
2018-08-22T04:20:39.566Z,69.02
2018-08-22T04:29:01.628Z,69.52
2018-08-22T04:37:22.702Z,68.65
2018-08-22T04:45:43.711Z,67.94
2018-08-22T04:54:04.747Z,68.24
2018-08-22T05:02:25.796Z,68.88
2018-08-22T05:10:46.823Z,67.52
2018-08-22T05:19:07.824Z,66.07
2018-08-22T05:31:55.399Z,66.64
2018-08-22T05:40:16.423Z,67.16
2018-08-22T05:48:38.487Z,66.50
2018-08-22T06:07:56.756Z,67.98
2018-08-22T06:16:17.806Z,67.25
2018-08-22T06:24:38.845Z,66.82
2018-08-22T06:33:00.165Z,65.26
2018-08-22T06:41:21.176Z,65.79
2018-08-22T06:49:44.231Z,63.29
2018-08-22T06:58:05.273Z,61.94
2018-08-22T07:06:26.304Z,61.84
2018-08-22T07:14:47.649Z,61.87
2018-08-22T07:23:08.688Z,60.11
2018-08-22T07:31:34.371Z,59.61
2018-08-22T07:39:56.436Z,58.30
2018-08-22T07:48:17.563Z,55.53
2018-08-22T07:56:38.940Z,53.45
2018-08-22T08:04:59.963Z,52.27
2018-08-22T08:13:24.204Z,47.94
2018-08-22T08:21:45.230Z,49.51
2018-08-22T08:30:06.277Z,48.23
2018-08-22T08:38:27.304Z,46.94
2018-08-22T08:46:48.662Z,46.40
2018-08-22T08:55:09.680Z,45.97
2018-08-22T09:03:30.742Z,45.74
2018-08-22T09:11:51.788Z,43.92
2018-08-22T09:20:16.247Z,45.03
2018-08-22T09:45:29.934Z,41.98
2018-08-22T09:53:50.955Z,40.28
2018-08-22T10:03:42.825Z,40.20
2018-08-22T10:20:34.818Z,37.86
2018-08-22T10:28:55.859Z,36.97
2018-08-22T10:37:17.201Z,34.67
2018-08-22T10:45:38.219Z,35.51
2018-08-22T10:53:59.263Z,35.49
2018-08-22T11:19:13.470Z,35.40
2018-08-22T11:27:34.481Z,36.11
2018-08-22T11:35:55.516Z,35.22
2018-08-22T11:44:16.547Z,34.91
2018-08-22T12:01:04.280Z,32.35
2018-08-22T12:09:25.328Z,31.06
2018-08-22T12:17:46.376Z,27.51
2018-08-22T12:43:01.648Z,19.71
2018-08-22T15:31:01.486Z,14.05
2018-08-22T17:29:07.739Z,30.86
2018-08-22T17:37:28.760Z,32.18
2018-08-22T17:45:49.819Z,33.77
2018-08-22T17:54:10.848Z,35.42
2018-08-22T18:02:31.882Z,36.83
2018-08-22T18:10:52.931Z,38.44
2018-08-22T18:19:14.008Z,39.62
2018-08-22T18:27:35.024Z,41.72
2018-08-22T18:35:56.163Z,42.67
2018-08-22T18:44:17.443Z,43.80
2018-08-22T18:52:44.484Z,45.25
2018-08-22T19:01:05.547Z,45.38
2018-08-22T19:09:26.595Z,48.49
2018-08-22T19:17:48.646Z,49.50
2018-08-22T19:26:13.699Z,50.59
2018-08-22T19:34:34.708Z,50.02
2018-08-22T19:42:55.745Z,51.62
2018-08-22T19:59:47.629Z,51.49
2018-08-22T20:16:35.027Z,54.95
2018-08-22T20:24:56.049Z,53.60
2018-08-22T20:35:22.458Z,56.23
2018-08-22T20:43:43.528Z,56.13
2018-08-22T20:52:04.926Z,56.37
2018-08-22T21:00:28.047Z,57.62
2018-08-22T21:08:50.137Z,58.66
2018-08-22T21:17:11.268Z,58.47
2018-08-22T21:25:32.288Z,58.67
2018-08-22T21:33:53.357Z,60.09
2018-08-22T21:42:14.491Z,58.78
2018-08-22T21:50:35.540Z,60.41
2018-08-22T21:58:56.560Z,59.89
2018-08-22T22:07:17.863Z,61.13
2018-08-22T22:15:42.840Z,61.59
2018-08-22T22:24:03.993Z,61.48
2018-08-22T22:32:25.035Z,61.17
2018-08-22T22:40:46.084Z,61.60
2018-08-22T22:49:08.184Z,61.79
2018-08-22T22:57:29.327Z,63.23
2018-08-22T23:05:50.356Z,63.80
2018-08-22T23:14:11.495Z,63.41
2018-08-22T23:22:33.591Z,65.01
2018-08-22T23:30:55.655Z,65.79
2018-08-22T23:39:16.697Z,66.41
2018-08-22T23:47:37.700Z,65.43
2018-08-22T23:55:58.712Z,68.08
